sensor_id;sensor_type;location;lat;lon;timestamp;P1;durP1;ratioP1;P2;durP2;ratioP2
10150;SDS011;5116;52.318;4.644;2023-04-01T00:01:49;5.13;;;2.40;;
10150;SDS011;5116;52.318;4.644;2023-04-01T00:04:17;3.17;;;2.10;;
10150;SDS011;5116;52.318;4.644;2023-04-01T00:06:44;3.10;;;2.23;;
10150;SDS011;5116;52.318;4.644;2023-04-01T00:09:13;6.87;;;1.70;;
10150;SDS011;5116;52.318;4.644;2023-04-01T00:11:41;7.43;;;2.23;;
10150;SDS011;5116;52.318;4.644;2023-04-01T00:14:08;4.27;;;1.93;;
10150;SDS011;5116;52.318;4.644;2023-04-01T00:16:36;4.03;;;2.20;;
10150;SDS011;5116;52.318;4.644;2023-04-01T00:19:04;4.33;;;1.83;;
10150;SDS011;5116;52.318;4.644;2023-04-01T00:21:32;1.63;;;1.23;;
10150;SDS011;5116;52.318;4.644;2023-04-01T00:24:00;2.40;;;1.97;;
10150;SDS011;5116;52.318;4.644;2023-04-01T00:26:27;2.00;;;1.60;;
10150;SDS011;5116;52.318;4.644;2023-04-01T00:28:55;4.50;;;1.70;;
10150;SDS011;5116;52.318;4.644;2023-04-01T00:31:22;2.23;;;1.43;;
10150;SDS011;5116;52.318;4.644;2023-04-01T00:33:50;3.23;;;1.80;;
10150;SDS011;5116;52.318;4.644;2023-04-01T00:36:19;3.50;;;1.67;;
10150;SDS011;5116;52.318;4.644;2023-04-01T00:38:48;3.00;;;1.57;;
10150;SDS011;5116;52.318;4.644;2023-04-01T00:41:17;3.53;;;1.67;;
10150;SDS011;5116;52.318;4.644;2023-04-01T00:43:46;3.77;;;2.00;;
10150;SDS011;5116;52.318;4.644;2023-04-01T00:46:14;3.27;;;1.50;;
10150;SDS011;5116;52.318;4.644;2023-04-01T00:48:43;2.77;;;1.70;;
10150;SDS011;5116;52.318;4.644;2023-04-01T00:51:16;4.20;;;1.67;;
10150;SDS011;5116;52.318;4.644;2023-04-01T00:53:45;3.27;;;1.87;;
10150;SDS011;5116;52.318;4.644;2023-04-01T00:56:17;4.40;;;2.30;;
10150;SDS011;5116;52.318;4.644;2023-04-01T00:58:46;5.63;;;2.10;;
10150;SDS011;5116;52.318;4.644;2023-04-01T01:01:15;3.20;;;1.77;;
10150;SDS011;5116;52.318;4.644;2023-04-01T01:03:42;4.23;;;1.80;;
10150;SDS011;5116;52.318;4.644;2023-04-01T01:11:10;3.80;;;2.13;;
10150;SDS011;5116;52.318;4.644;2023-04-01T01:13:42;3.07;;;2.03;;
10150;SDS011;5116;52.318;4.644;2023-04-01T01:16:18;2.00;;;1.80;;
10150;SDS011;5116;52.318;4.644;2023-04-01T01:18:58;3.30;;;2.43;;
10150;SDS011;5116;52.318;4.644;2023-04-01T01:32:09;5.87;;;2.10;;
10150;SDS011;5116;52.318;4.644;2023-04-01T01:34:43;4.77;;;2.10;;
10150;SDS011;5116;52.318;4.644;2023-04-01T01:37:16;2.70;;;1.80;;
10150;SDS011;5116;52.318;4.644;2023-04-01T01:39:45;3.57;;;1.90;;
10150;SDS011;5116;52.318;4.644;2023-04-01T01:42:13;3.20;;;1.73;;
10150;SDS011;5116;52.318;4.644;2023-04-01T01:44:42;1.80;;;1.47;;
10150;SDS011;5116;52.318;4.644;2023-04-01T01:47:10;2.00;;;1.80;;
10150;SDS011;5116;52.318;4.644;2023-04-01T01:49:39;1.70;;;1.53;;
10150;SDS011;5116;52.318;4.644;2023-04-01T01:52:07;3.20;;;1.70;;
10150;SDS011;5116;52.318;4.644;2023-04-01T01:54:34;3.33;;;1.60;;
10150;SDS011;5116;52.318;4.644;2023-04-01T01:57:04;2.47;;;1.50;;
10150;SDS011;5116;52.318;4.644;2023-04-01T01:59:34;3.53;;;1.57;;
10150;SDS011;5116;52.318;4.644;2023-04-01T02:02:03;2.83;;;1.77;;
10150;SDS011;5116;52.318;4.644;2023-04-01T02:04:35;2.00;;;1.53;;
10150;SDS011;5116;52.318;4.644;2023-04-01T02:07:07;1.97;;;1.43;;
10150;SDS011;5116;52.318;4.644;2023-04-01T02:09:37;2.03;;;1.70;;
10150;SDS011;5116;52.318;4.644;2023-04-01T02:12:06;1.93;;;1.73;;
10150;SDS011;5116;52.318;4.644;2023-04-01T02:17:23;2.77;;;1.80;;
10150;SDS011;5116;52.318;4.644;2023-04-01T02:19:53;3.20;;;2.23;;
10150;SDS011;5116;52.318;4.644;2023-04-01T02:22:24;4.43;;;2.20;;
10150;SDS011;5116;52.318;4.644;2023-04-01T02:24:54;1.90;;;1.50;;
10150;SDS011;5116;52.318;4.644;2023-04-01T02:27:24;2.23;;;1.80;;
10150;SDS011;5116;52.318;4.644;2023-04-01T02:29:52;2.77;;;2.20;;
10150;SDS011;5116;52.318;4.644;2023-04-01T02:32:20;2.30;;;2.00;;
10150;SDS011;5116;52.318;4.644;2023-04-01T02:34:47;5.77;;;2.90;;
10150;SDS011;5116;52.318;4.644;2023-04-01T02:37:15;3.03;;;2.73;;
10150;SDS011;5116;52.318;4.644;2023-04-01T02:39:43;2.93;;;2.20;;
10150;SDS011;5116;52.318;4.644;2023-04-01T02:42:11;4.23;;;2.50;;
10150;SDS011;5116;52.318;4.644;2023-04-01T02:44:38;3.13;;;2.80;;
10150;SDS011;5116;52.318;4.644;2023-04-01T02:47:06;2.23;;;1.97;;
10150;SDS011;5116;52.318;4.644;2023-04-01T02:49:33;3.23;;;2.93;;
10150;SDS011;5116;52.318;4.644;2023-04-01T02:52:00;3.50;;;2.33;;
10150;SDS011;5116;52.318;4.644;2023-04-01T02:54:28;3.87;;;2.63;;
10150;SDS011;5116;52.318;4.644;2023-04-01T02:56:55;3.83;;;3.17;;
10150;SDS011;5116;52.318;4.644;2023-04-01T02:59:23;4.63;;;2.90;;
10150;SDS011;5116;52.318;4.644;2023-04-01T03:01:50;4.17;;;3.17;;
10150;SDS011;5116;52.318;4.644;2023-04-01T03:04:18;3.00;;;2.47;;
10150;SDS011;5116;52.318;4.644;2023-04-01T03:06:45;4.50;;;3.30;;
10150;SDS011;5116;52.318;4.644;2023-04-01T03:09:13;2.67;;;2.30;;
10150;SDS011;5116;52.318;4.644;2023-04-01T03:11:41;3.80;;;2.60;;
10150;SDS011;5116;52.318;4.644;2023-04-01T03:14:08;3.83;;;2.73;;
10150;SDS011;5116;52.318;4.644;2023-04-01T03:16:36;4.20;;;2.50;;
10150;SDS011;5116;52.318;4.644;2023-04-01T03:19:03;7.20;;;4.10;;
10150;SDS011;5116;52.318;4.644;2023-04-01T03:21:31;5.57;;;3.00;;
10150;SDS011;5116;52.318;4.644;2023-04-01T03:23:59;4.63;;;3.43;;
10150;SDS011;5116;52.318;4.644;2023-04-01T03:26:27;4.70;;;3.70;;
10150;SDS011;5116;52.318;4.644;2023-04-01T03:28:55;6.40;;;3.47;;
10150;SDS011;5116;52.318;4.644;2023-04-01T03:31:23;5.73;;;3.87;;
10150;SDS011;5116;52.318;4.644;2023-04-01T03:33:54;3.97;;;3.40;;
10150;SDS011;5116;52.318;4.644;2023-04-01T03:36:22;10.30;;;3.90;;
10150;SDS011;5116;52.318;4.644;2023-04-01T03:38:49;3.60;;;2.60;;
10150;SDS011;5116;52.318;4.644;2023-04-01T03:41:23;4.00;;;3.30;;
10150;SDS011;5116;52.318;4.644;2023-04-01T03:43:52;5.07;;;3.43;;
10150;SDS011;5116;52.318;4.644;2023-04-01T03:46:20;4.17;;;2.80;;
10150;SDS011;5116;52.318;4.644;2023-04-01T03:48:48;4.70;;;3.73;;
10150;SDS011;5116;52.318;4.644;2023-04-01T03:51:16;7.50;;;3.57;;
10150;SDS011;5116;52.318;4.644;2023-04-01T03:53:43;5.80;;;3.60;;
10150;SDS011;5116;52.318;4.644;2023-04-01T03:56:11;6.53;;;4.10;;
10150;SDS011;5116;52.318;4.644;2023-04-01T03:58:38;5.83;;;3.60;;
10150;SDS011;5116;52.318;4.644;2023-04-01T04:01:17;4.87;;;3.67;;
10150;SDS011;5116;52.318;4.644;2023-04-01T04:03:49;5.80;;;3.07;;
10150;SDS011;5116;52.318;4.644;2023-04-01T04:06:18;3.80;;;3.30;;
10150;SDS011;5116;52.318;4.644;2023-04-01T04:08:46;4.90;;;3.90;;
10150;SDS011;5116;52.318;4.644;2023-04-01T04:11:14;4.57;;;3.23;;
10150;SDS011;5116;52.318;4.644;2023-04-01T04:13:42;5.27;;;3.70;;
10150;SDS011;5116;52.318;4.644;2023-04-01T04:16:10;5.30;;;3.87;;
10150;SDS011;5116;52.318;4.644;2023-04-01T04:18:42;5.57;;;3.50;;
10150;SDS011;5116;52.318;4.644;2023-04-01T04:21:11;5.97;;;3.77;;
10150;SDS011;5116;52.318;4.644;2023-04-01T04:23:40;4.30;;;3.27;;
10150;SDS011;5116;52.318;4.644;2023-04-01T04:26:09;3.97;;;3.50;;
10150;SDS011;5116;52.318;4.644;2023-04-01T04:28:38;5.50;;;3.57;;
10150;SDS011;5116;52.318;4.644;2023-04-01T04:31:06;6.70;;;3.77;;
10150;SDS011;5116;52.318;4.644;2023-04-01T04:33:35;5.90;;;4.33;;
10150;SDS011;5116;52.318;4.644;2023-04-01T04:36:03;5.80;;;3.93;;
10150;SDS011;5116;52.318;4.644;2023-04-01T04:38:31;8.50;;;4.10;;
10150;SDS011;5116;52.318;4.644;2023-04-01T04:40:59;6.50;;;4.43;;
10150;SDS011;5116;52.318;4.644;2023-04-01T04:43:26;5.10;;;3.73;;
10150;SDS011;5116;52.318;4.644;2023-04-01T04:45:55;4.33;;;3.47;;
10150;SDS011;5116;52.318;4.644;2023-04-01T04:48:23;8.07;;;3.67;;
10150;SDS011;5116;52.318;4.644;2023-04-01T04:50:50;6.57;;;4.20;;
10150;SDS011;5116;52.318;4.644;2023-04-01T04:53:22;4.73;;;3.20;;
10150;SDS011;5116;52.318;4.644;2023-04-01T04:55:49;6.83;;;3.57;;
10150;SDS011;5116;52.318;4.644;2023-04-01T04:58:46;6.00;;;3.77;;
10150;SDS011;5116;52.318;4.644;2023-04-01T05:01:18;6.60;;;3.60;;
10150;SDS011;5116;52.318;4.644;2023-04-01T05:03:46;6.27;;;3.97;;
10150;SDS011;5116;52.318;4.644;2023-04-01T05:06:15;6.27;;;3.90;;
10150;SDS011;5116;52.318;4.644;2023-04-01T05:08:43;6.03;;;3.70;;
10150;SDS011;5116;52.318;4.644;2023-04-01T05:11:12;7.47;;;4.33;;
10150;SDS011;5116;52.318;4.644;2023-04-01T05:13:42;5.40;;;3.47;;
10150;SDS011;5116;52.318;4.644;2023-04-01T05:16:11;3.90;;;3.10;;
10150;SDS011;5116;52.318;4.644;2023-04-01T05:18:39;4.20;;;2.90;;
10150;SDS011;5116;52.318;4.644;2023-04-01T05:21:07;4.13;;;2.93;;
10150;SDS011;5116;52.318;4.644;2023-04-01T05:23:35;4.87;;;3.17;;
10150;SDS011;5116;52.318;4.644;2023-04-01T05:26:07;4.10;;;3.13;;
10150;SDS011;5116;52.318;4.644;2023-04-01T05:28:36;3.27;;;2.97;;
10150;SDS011;5116;52.318;4.644;2023-04-01T05:31:05;5.27;;;3.27;;
10150;SDS011;5116;52.318;4.644;2023-04-01T05:33:36;3.53;;;2.53;;
10150;SDS011;5116;52.318;4.644;2023-04-01T05:36:06;3.20;;;2.90;;
10150;SDS011;5116;52.318;4.644;2023-04-01T05:38:37;5.38;;;3.78;;
10150;SDS011;5116;52.318;4.644;2023-04-01T05:41:07;3.73;;;3.03;;
10150;SDS011;5116;52.318;4.644;2023-04-01T05:43:39;5.27;;;3.30;;
10150;SDS011;5116;52.318;4.644;2023-04-01T05:46:31;5.20;;;3.10;;
10150;SDS011;5116;52.318;4.644;2023-04-01T05:49:09;5.13;;;3.27;;
10150;SDS011;5116;52.318;4.644;2023-04-01T05:51:38;5.00;;;2.80;;
10150;SDS011;5116;52.318;4.644;2023-04-01T05:54:05;4.50;;;2.90;;
10150;SDS011;5116;52.318;4.644;2023-04-01T05:56:33;4.00;;;2.47;;
10150;SDS011;5116;52.318;4.644;2023-04-01T05:59:01;4.27;;;2.40;;
10150;SDS011;5116;52.318;4.644;2023-04-01T06:01:28;3.70;;;2.60;;
10150;SDS011;5116;52.318;4.644;2023-04-01T06:03:56;4.73;;;2.80;;
10150;SDS011;5116;52.318;4.644;2023-04-01T06:06:26;3.83;;;2.43;;
10150;SDS011;5116;52.318;4.644;2023-04-01T06:09:24;4.20;;;2.43;;
10150;SDS011;5116;52.318;4.644;2023-04-01T06:27:51;3.50;;;2.97;;
10150;SDS011;5116;52.318;4.644;2023-04-01T06:38:10;4.33;;;3.33;;
10150;SDS011;5116;52.318;4.644;2023-04-01T06:46:37;3.97;;;2.57;;
10150;SDS011;5116;52.318;4.644;2023-04-01T06:53:12;4.70;;;3.10;;
10150;SDS011;5116;52.318;4.644;2023-04-01T06:55:56;4.17;;;2.80;;
10150;SDS011;5116;52.318;4.644;2023-04-01T06:58:44;3.00;;;2.70;;
10150;SDS011;5116;52.318;4.644;2023-04-01T07:01:14;4.87;;;3.07;;
10150;SDS011;5116;52.318;4.644;2023-04-01T07:03:44;4.33;;;3.10;;
10150;SDS011;5116;52.318;4.644;2023-04-01T07:06:18;5.63;;;3.43;;
10150;SDS011;5116;52.318;4.644;2023-04-01T07:08:51;3.30;;;2.40;;
10150;SDS011;5116;52.318;4.644;2023-04-01T07:11:29;3.67;;;2.83;;
10150;SDS011;5116;52.318;4.644;2023-04-01T07:14:41;3.70;;;2.60;;
10150;SDS011;5116;52.318;4.644;2023-04-01T07:17:12;6.73;;;3.10;;
10150;SDS011;5116;52.318;4.644;2023-04-01T07:25:17;3.60;;;3.00;;
10150;SDS011;5116;52.318;4.644;2023-04-01T07:27:56;5.00;;;3.20;;
10150;SDS011;5116;52.318;4.644;2023-04-01T07:30:28;4.43;;;2.90;;
10150;SDS011;5116;52.318;4.644;2023-04-01T07:33:04;5.00;;;2.80;;
10150;SDS011;5116;52.318;4.644;2023-04-01T07:51:27;4.23;;;2.93;;
10150;SDS011;5116;52.318;4.644;2023-04-01T07:59:17;3.50;;;2.43;;
10150;SDS011;5116;52.318;4.644;2023-04-01T08:02:06;4.33;;;2.80;;
10150;SDS011;5116;52.318;4.644;2023-04-01T08:04:47;6.27;;;3.30;;
10150;SDS011;5116;52.318;4.644;2023-04-01T08:07:25;3.83;;;2.77;;
10150;SDS011;5116;52.318;4.644;2023-04-01T08:10:32;3.83;;;2.40;;
10150;SDS011;5116;52.318;4.644;2023-04-01T08:18:59;5.70;;;2.37;;
10150;SDS011;5116;52.318;4.644;2023-04-01T08:21:32;3.90;;;2.47;;
10150;SDS011;5116;52.318;4.644;2023-04-01T08:24:17;5.13;;;2.93;;
10150;SDS011;5116;52.318;4.644;2023-04-01T08:26:49;3.63;;;2.33;;
10150;SDS011;5116;52.318;4.644;2023-04-01T08:29:19;5.77;;;3.47;;
10150;SDS011;5116;52.318;4.644;2023-04-01T08:31:55;4.33;;;2.43;;
10150;SDS011;5116;52.318;4.644;2023-04-01T08:34:25;4.47;;;3.00;;
10150;SDS011;5116;52.318;4.644;2023-04-01T08:37:00;4.37;;;2.87;;
10150;SDS011;5116;52.318;4.644;2023-04-01T08:39:31;5.47;;;3.13;;
10150;SDS011;5116;52.318;4.644;2023-04-01T08:50:58;5.10;;;2.53;;
10150;SDS011;5116;52.318;4.644;2023-04-01T09:23:10;3.53;;;2.63;;
10150;SDS011;5116;52.318;4.644;2023-04-01T09:28:34;5.60;;;2.83;;
10150;SDS011;5116;52.318;4.644;2023-04-01T09:31:17;3.27;;;2.70;;
10150;SDS011;5116;52.318;4.644;2023-04-01T09:39:43;5.13;;;3.37;;
10150;SDS011;5116;52.318;4.644;2023-04-01T09:45:29;4.73;;;2.73;;
10150;SDS011;5116;52.318;4.644;2023-04-01T09:48:02;4.47;;;2.80;;
10150;SDS011;5116;52.318;4.644;2023-04-01T09:50:50;4.50;;;3.53;;
10150;SDS011;5116;52.318;4.644;2023-04-01T10:07:27;7.20;;;4.40;;
10150;SDS011;5116;52.318;4.644;2023-04-01T10:12:35;3.90;;;2.97;;
10150;SDS011;5116;52.318;4.644;2023-04-01T10:15:16;4.13;;;3.40;;
10150;SDS011;5116;52.318;4.644;2023-04-01T10:17:59;8.23;;;4.00;;
10150;SDS011;5116;52.318;4.644;2023-04-01T10:20:39;4.00;;;3.47;;
10150;SDS011;5116;52.318;4.644;2023-04-01T10:29:03;4.50;;;3.33;;
10150;SDS011;5116;52.318;4.644;2023-04-01T10:36:54;7.40;;;4.13;;
10150;SDS011;5116;52.318;4.644;2023-04-01T10:53:28;8.50;;;4.47;;
10150;SDS011;5116;52.318;4.644;2023-04-01T10:59:40;4.40;;;2.83;;
10150;SDS011;5116;52.318;4.644;2023-04-01T11:02:44;3.90;;;3.33;;
10150;SDS011;5116;52.318;4.644;2023-04-01T11:06:19;3.83;;;2.97;;
10150;SDS011;5116;52.318;4.644;2023-04-01T11:08:31;3.97;;;3.33;;
10150;SDS011;5116;52.318;4.644;2023-04-01T11:16:33;5.93;;;3.67;;
10150;SDS011;5116;52.318;4.644;2023-04-01T11:22:09;3.73;;;3.10;;
10150;SDS011;5116;52.318;4.644;2023-04-01T11:24:51;4.47;;;2.97;;
10150;SDS011;5116;52.318;4.644;2023-04-01T11:35:38;3.97;;;3.03;;
10150;SDS011;5116;52.318;4.644;2023-04-01T11:40:48;4.33;;;3.20;;
10150;SDS011;5116;52.318;4.644;2023-04-01T11:43:38;5.40;;;3.43;;
10150;SDS011;5116;52.318;4.644;2023-04-01T11:46:45;5.00;;;2.43;;
10150;SDS011;5116;52.318;4.644;2023-04-01T11:55:06;4.93;;;2.90;;
10150;SDS011;5116;52.318;4.644;2023-04-01T12:10:17;4.43;;;2.70;;
10150;SDS011;5116;52.318;4.644;2023-04-01T12:15:43;5.57;;;3.47;;
10150;SDS011;5116;52.318;4.644;2023-04-01T12:36:48;3.00;;;2.67;;
10150;SDS011;5116;52.318;4.644;2023-04-01T12:42:16;3.37;;;2.60;;
10150;SDS011;5116;52.318;4.644;2023-04-01T12:44:57;3.80;;;2.37;;
10150;SDS011;5116;52.318;4.644;2023-04-01T12:47:30;3.27;;;2.63;;
10150;SDS011;5116;52.318;4.644;2023-04-01T12:50:15;5.13;;;3.00;;
10150;SDS011;5116;52.318;4.644;2023-04-01T12:52:53;4.30;;;2.60;;
10150;SDS011;5116;52.318;4.644;2023-04-01T12:55:36;3.27;;;2.77;;
10150;SDS011;5116;52.318;4.644;2023-04-01T13:01:03;3.13;;;2.80;;
10150;SDS011;5116;52.318;4.644;2023-04-01T13:06:27;3.63;;;2.53;;
10150;SDS011;5116;52.318;4.644;2023-04-01T13:11:48;2.70;;;2.37;;
10150;SDS011;5116;52.318;4.644;2023-04-01T13:24:50;5.07;;;2.67;;
10150;SDS011;5116;52.318;4.644;2023-04-01T13:30:04;3.07;;;2.33;;
10150;SDS011;5116;52.318;4.644;2023-04-01T13:32:47;3.97;;;2.50;;
10150;SDS011;5116;52.318;4.644;2023-04-01T13:43:36;2.47;;;2.23;;
10150;SDS011;5116;52.318;4.644;2023-04-01T13:46:10;2.87;;;2.07;;
10150;SDS011;5116;52.318;4.644;2023-04-01T13:59:26;2.37;;;2.10;;
10150;SDS011;5116;52.318;4.644;2023-04-01T14:04:53;3.40;;;2.57;;
10150;SDS011;5116;52.318;4.644;2023-04-01T14:12:43;2.43;;;1.93;;
10150;SDS011;5116;52.318;4.644;2023-04-01T14:15:31;3.17;;;2.20;;
10150;SDS011;5116;52.318;4.644;2023-04-01T14:18:13;2.33;;;2.07;;
10150;SDS011;5116;52.318;4.644;2023-04-01T14:26:50;2.43;;;2.20;;
10150;SDS011;5116;52.318;4.644;2023-04-01T14:29:34;3.53;;;2.07;;
10150;SDS011;5116;52.318;4.644;2023-04-01T14:40:26;2.03;;;1.83;;
10150;SDS011;5116;52.318;4.644;2023-04-01T14:45:40;2.43;;;2.23;;
10150;SDS011;5116;52.318;4.644;2023-04-01T14:50:55;1.70;;;1.60;;
10150;SDS011;5116;52.318;4.644;2023-04-01T14:55:56;2.63;;;2.30;;
10150;SDS011;5116;52.318;4.644;2023-04-01T14:58:42;2.73;;;2.47;;
10150;SDS011;5116;52.318;4.644;2023-04-01T15:01:17;3.13;;;2.33;;
10150;SDS011;5116;52.318;4.644;2023-04-01T15:06:43;3.13;;;2.50;;
10150;SDS011;5116;52.318;4.644;2023-04-01T15:09:30;3.20;;;2.50;;
10150;SDS011;5116;52.318;4.644;2023-04-01T15:14:43;3.80;;;2.40;;
10150;SDS011;5116;52.318;4.644;2023-04-01T15:17:19;2.57;;;2.23;;
10150;SDS011;5116;52.318;4.644;2023-04-01T15:22:39;2.43;;;2.23;;
10150;SDS011;5116;52.318;4.644;2023-04-01T15:25:17;2.80;;;2.30;;
10150;SDS011;5116;52.318;4.644;2023-04-01T15:38:33;3.03;;;2.40;;
10150;SDS011;5116;52.318;4.644;2023-04-01T15:41:15;2.87;;;2.53;;
10150;SDS011;5116;52.318;4.644;2023-04-01T15:43:49;2.57;;;2.30;;
10150;SDS011;5116;52.318;4.644;2023-04-01T15:48:57;2.93;;;2.17;;
10150;SDS011;5116;52.318;4.644;2023-04-01T15:51:41;2.70;;;2.27;;
10150;SDS011;5116;52.318;4.644;2023-04-01T15:54:27;2.83;;;2.20;;
10150;SDS011;5116;52.318;4.644;2023-04-01T16:10:29;2.13;;;1.97;;
10150;SDS011;5116;52.318;4.644;2023-04-01T16:21:19;2.20;;;2.00;;
10150;SDS011;5116;52.318;4.644;2023-04-01T16:23:50;3.70;;;2.00;;
10150;SDS011;5116;52.318;4.644;2023-04-01T16:26:36;2.50;;;2.00;;
10150;SDS011;5116;52.318;4.644;2023-04-01T16:29:52;2.30;;;2.10;;
10150;SDS011;5116;52.318;4.644;2023-04-01T16:31:57;2.90;;;2.20;;
10150;SDS011;5116;52.318;4.644;2023-04-01T16:34:30;2.03;;;1.83;;
10150;SDS011;5116;52.318;4.644;2023-04-01T16:37:19;1.90;;;1.77;;
10150;SDS011;5116;52.318;4.644;2023-04-01T16:47:47;3.30;;;2.10;;
10150;SDS011;5116;52.318;4.644;2023-04-01T16:55:20;2.67;;;1.77;;
10150;SDS011;5116;52.318;4.644;2023-04-01T16:57:50;2.47;;;2.10;;
10150;SDS011;5116;52.318;4.644;2023-04-01T17:03:11;2.03;;;1.73;;
10150;SDS011;5116;52.318;4.644;2023-04-01T17:05:46;2.40;;;2.20;;
10150;SDS011;5116;52.318;4.644;2023-04-01T17:11:44;2.13;;;1.93;;
10150;SDS011;5116;52.318;4.644;2023-04-01T17:13:58;1.70;;;1.60;;
10150;SDS011;5116;52.318;4.644;2023-04-01T17:22:33;1.60;;;1.50;;
10150;SDS011;5116;52.318;4.644;2023-04-01T17:25:32;2.60;;;1.70;;
10150;SDS011;5116;52.318;4.644;2023-04-01T17:28:24;2.50;;;2.03;;
10150;SDS011;5116;52.318;4.644;2023-04-01T17:30:57;1.90;;;1.73;;
10150;SDS011;5116;52.318;4.644;2023-04-01T17:36:36;2.03;;;1.80;;
10150;SDS011;5116;52.318;4.644;2023-04-01T17:47:12;1.70;;;1.60;;
10150;SDS011;5116;52.318;4.644;2023-04-01T18:00:25;1.97;;;1.73;;
10150;SDS011;5116;52.318;4.644;2023-04-01T18:08:15;2.40;;;1.90;;
10150;SDS011;5116;52.318;4.644;2023-04-01T18:13:21;1.60;;;1.50;;
10150;SDS011;5116;52.318;4.644;2023-04-01T18:15:59;2.07;;;1.87;;
10150;SDS011;5116;52.318;4.644;2023-04-01T18:21:35;1.97;;;1.70;;
10150;SDS011;5116;52.318;4.644;2023-04-01T18:24:16;2.10;;;1.90;;
10150;SDS011;5116;52.318;4.644;2023-04-01T18:26:50;1.80;;;1.50;;
10150;SDS011;5116;52.318;4.644;2023-04-01T18:29:32;2.43;;;2.00;;
10150;SDS011;5116;52.318;4.644;2023-04-01T18:37:30;2.37;;;1.97;;
10150;SDS011;5116;52.318;4.644;2023-04-01T18:40:02;1.70;;;1.60;;
10150;SDS011;5116;52.318;4.644;2023-04-01T18:42:34;1.83;;;1.70;;
10150;SDS011;5116;52.318;4.644;2023-04-01T18:45:15;1.90;;;1.70;;
10150;SDS011;5116;52.318;4.644;2023-04-01T18:47:56;1.90;;;1.67;;
10150;SDS011;5116;52.318;4.644;2023-04-01T18:50:41;2.40;;;2.20;;
10150;SDS011;5116;52.318;4.644;2023-04-01T18:53:17;1.83;;;1.70;;
10150;SDS011;5116;52.318;4.644;2023-04-01T18:55:52;1.80;;;1.70;;
10150;SDS011;5116;52.318;4.644;2023-04-01T18:58:32;2.70;;;1.50;;
10150;SDS011;5116;52.318;4.644;2023-04-01T19:01:12;2.33;;;2.03;;
10150;SDS011;5116;52.318;4.644;2023-04-01T19:03:48;2.27;;;2.07;;
10150;SDS011;5116;52.318;4.644;2023-04-01T19:06:27;1.60;;;1.50;;
10150;SDS011;5116;52.318;4.644;2023-04-01T19:08:56;1.87;;;1.77;;
10150;SDS011;5116;52.318;4.644;2023-04-01T19:11:40;1.90;;;1.67;;
10150;SDS011;5116;52.318;4.644;2023-04-01T19:14:24;1.90;;;1.80;;
10150;SDS011;5116;52.318;4.644;2023-04-01T19:19:29;2.27;;;2.03;;
10150;SDS011;5116;52.318;4.644;2023-04-01T19:25:01;2.40;;;1.97;;
10150;SDS011;5116;52.318;4.644;2023-04-01T19:27:37;5.00;;;2.53;;
10150;SDS011;5116;52.318;4.644;2023-04-01T19:32:39;2.20;;;1.90;;
10150;SDS011;5116;52.318;4.644;2023-04-01T19:35:18;3.77;;;2.50;;
10150;SDS011;5116;52.318;4.644;2023-04-01T19:38:03;2.40;;;2.10;;
10150;SDS011;5116;52.318;4.644;2023-04-01T19:40:41;4.03;;;2.50;;
10150;SDS011;5116;52.318;4.644;2023-04-01T19:45:45;2.87;;;2.37;;
10150;SDS011;5116;52.318;4.644;2023-04-01T19:48:30;2.50;;;2.30;;
10150;SDS011;5116;52.318;4.644;2023-04-01T19:53:58;3.80;;;2.60;;
10150;SDS011;5116;52.318;4.644;2023-04-01T19:56:30;2.57;;;2.37;;
10150;SDS011;5116;52.318;4.644;2023-04-01T19:59:03;2.57;;;2.37;;
10150;SDS011;5116;52.318;4.644;2023-04-01T20:01:34;1.90;;;1.77;;
10150;SDS011;5116;52.318;4.644;2023-04-01T20:04:13;2.13;;;1.93;;
10150;SDS011;5116;52.318;4.644;2023-04-01T20:06:57;2.50;;;2.20;;
10150;SDS011;5116;52.318;4.644;2023-04-01T20:09:39;3.43;;;2.63;;
10150;SDS011;5116;52.318;4.644;2023-04-01T20:12:15;3.17;;;2.60;;
10150;SDS011;5116;52.318;4.644;2023-04-01T20:14:48;2.60;;;2.40;;
10150;SDS011;5116;52.318;4.644;2023-04-01T20:17:18;2.67;;;2.47;;
10150;SDS011;5116;52.318;4.644;2023-04-01T20:25:15;4.10;;;2.63;;
10150;SDS011;5116;52.318;4.644;2023-04-01T20:27:50;4.33;;;2.60;;
10150;SDS011;5116;52.318;4.644;2023-04-01T20:33:02;3.17;;;2.27;;
10150;SDS011;5116;52.318;4.644;2023-04-01T20:38:15;3.17;;;2.63;;
10150;SDS011;5116;52.318;4.644;2023-04-01T20:40:47;3.07;;;2.03;;
10150;SDS011;5116;52.318;4.644;2023-04-01T20:43:21;2.50;;;2.30;;
10150;SDS011;5116;52.318;4.644;2023-04-01T20:48:23;4.03;;;2.47;;
10150;SDS011;5116;52.318;4.644;2023-04-01T20:50:56;3.03;;;2.53;;
10150;SDS011;5116;52.318;4.644;2023-04-01T20:55:58;3.37;;;2.80;;
10150;SDS011;5116;52.318;4.644;2023-04-01T20:58:33;3.50;;;3.00;;
10150;SDS011;5116;52.318;4.644;2023-04-01T21:16:55;2.77;;;2.43;;
10150;SDS011;5116;52.318;4.644;2023-04-01T21:40:40;3.23;;;2.93;;
10150;SDS011;5116;52.318;4.644;2023-04-01T21:51:22;3.67;;;2.80;;
10150;SDS011;5116;52.318;4.644;2023-04-01T21:59:31;6.50;;;3.57;;
10150;SDS011;5116;52.318;4.644;2023-04-01T22:02:24;3.23;;;2.87;;
10150;SDS011;5116;52.318;4.644;2023-04-01T22:13:20;4.23;;;3.13;;
10150;SDS011;5116;52.318;4.644;2023-04-01T22:18:59;2.93;;;2.63;;
10150;SDS011;5116;52.318;4.644;2023-04-01T22:24:25;3.23;;;2.93;;
10150;SDS011;5116;52.318;4.644;2023-04-01T22:27:14;3.10;;;2.80;;
10150;SDS011;5116;52.318;4.644;2023-04-01T22:32:18;3.63;;;3.07;;
10150;SDS011;5116;52.318;4.644;2023-04-01T22:42:44;4.47;;;2.70;;
10150;SDS011;5116;52.318;4.644;2023-04-01T22:55:44;4.10;;;2.87;;
10150;SDS011;5116;52.318;4.644;2023-04-01T22:58:26;3.97;;;2.80;;
10150;SDS011;5116;52.318;4.644;2023-04-01T23:01:01;5.60;;;3.03;;
10150;SDS011;5116;52.318;4.644;2023-04-01T23:03:33;3.17;;;2.70;;
10150;SDS011;5116;52.318;4.644;2023-04-01T23:06:02;3.83;;;2.70;;
10150;SDS011;5116;52.318;4.644;2023-04-01T23:11:24;4.03;;;2.77;;
10150;SDS011;5116;52.318;4.644;2023-04-01T23:13:57;3.20;;;2.63;;
10150;SDS011;5116;52.318;4.644;2023-04-01T23:16:32;2.87;;;2.63;;
10150;SDS011;5116;52.318;4.644;2023-04-01T23:19:13;3.43;;;2.73;;
10150;SDS011;5116;52.318;4.644;2023-04-01T23:21:54;4.13;;;2.70;;
10150;SDS011;5116;52.318;4.644;2023-04-01T23:29:28;3.33;;;3.00;;
10150;SDS011;5116;52.318;4.644;2023-04-01T23:32:02;4.57;;;2.90;;
10150;SDS011;5116;52.318;4.644;2023-04-01T23:34:31;4.83;;;3.10;;
10150;SDS011;5116;52.318;4.644;2023-04-01T23:37:08;3.27;;;2.67;;
10150;SDS011;5116;52.318;4.644;2023-04-01T23:39:49;4.13;;;2.83;;
10150;SDS011;5116;52.318;4.644;2023-04-01T23:42:24;3.70;;;2.77;;
10150;SDS011;5116;52.318;4.644;2023-04-01T23:44:53;4.57;;;3.20;;
10150;SDS011;5116;52.318;4.644;2023-04-01T23:47:24;4.23;;;2.70;;
10150;SDS011;5116;52.318;4.644;2023-04-01T23:49:59;4.17;;;2.83;;
10150;SDS011;5116;52.318;4.644;2023-04-01T23:52:31;7.13;;;3.20;;
10150;SDS011;5116;52.318;4.644;2023-04-01T23:55:03;4.50;;;3.27;;
10150;SDS011;5116;52.318;4.644;2023-04-01T23:57:34;3.63;;;2.97;;
